Aérodrome :
LOGIN :

S'inscrire | Disclaimer

   EN    FR    IT 

 










Légende :    VFR   VFR Marginal   IFR   IFR Intensif   IFR Très Intensif
Visi : 
Plafond : 
>= 8 km
>= 3000ft
5 à 8 km
1000 à 3000 ft
1500m à 5 km
500 à 1000 ft
800 à 1500m
200 à 500 ft
< 800m
< 200 ft
Symboles :   Orages  Brouillard  Fortes neiges  Fortes précipitations  Vent > 20 kt
SIGMETs :   Divers  Orages  Givrage  Turbulence  Onde Orograph.  Cendres Volcan.







- Altitude de l'aérodrome : 76 ft
- Code IATA : KID


ESMK - Kristianstad

DERNIER METAR :
  • 171820Z 34011KT 9999 OVC017 M01/// Q0995

METARs EXPIRÉS :
  • 171750Z 34010KT 9999 OVC016 M01/// Q0994
  • 171720Z 34010KT 9999 BKN012 OVC056 M01/// Q0993
  • 171650Z 01008KT 9999 FEW005 BKN050 M00/// Q0993
  • 171620Z 36010KT 9999 -SN BKN004 BKN051 00/// Q0992
  • 171550Z 33006KT 1000 R01/P2000N R19/P2000N -SN FEW003 BKN006 01/// Q0992 RESHSN

TAF TAF ESMK
Valide du 17 à 18h jusqu'au 17 à 21h UTC


171706Z 1718/1721 35008KT 9999 BKN015
TEMPO 1718/1721 3000 -SHSN BKN012 BKN015CB
Pas de NOTAMs connus pour ce terrain.



MET'MAP, la Météo Aéronautique d'un coup d'oeil ! - Copyright ORBIFLY Décembre 2007 - Disclaimer

ORBIFLY MET'MAP TEAM :

Programmation & Développement : Alexandra Zaïnal
Conception & Développement : Baudouin d'Aumeries
Co-Programmation & Développement : Marc-Olivier Méhu
Soutien technique & logistique : Manuel Goepfert

Contact : metmap@orbifly.com




SOURCES & CREDITS :

   NOAA